createdAt,value
2018-01-19T00:00:23.084Z,38.2
2018-01-19T00:01:23.817Z,37.0
2018-01-19T00:02:24.538Z,33.7
2018-01-19T00:03:25.314Z,42.8
2018-01-19T00:04:26.105Z,40.0
2018-01-19T00:05:26.814Z,36.6
2018-01-19T00:06:27.548Z,35.6
2018-01-19T00:07:28.358Z,40.5
2018-01-19T00:08:29.135Z,35.0
2018-01-19T00:09:29.858Z,39.8
2018-01-19T00:10:30.654Z,33.8
2018-01-19T00:11:31.388Z,40.0
2018-01-19T00:12:32.104Z,39.9
2018-01-19T00:13:32.905Z,36.6
2018-01-19T00:14:33.583Z,37.9
2018-01-19T00:15:34.308Z,32.0
2018-01-19T00:16:35.028Z,36.9
2018-01-19T00:17:35.750Z,34.5
2018-01-19T00:18:36.533Z,33.8
2018-01-19T00:19:37.269Z,28.9
2018-01-19T00:20:38.078Z,34.4
2018-01-19T00:21:38.804Z,34.2
2018-01-19T00:22:39.619Z,25.9
2018-01-19T00:23:40.395Z,29.4
2018-01-19T00:24:41.116Z,41.8
2018-01-19T00:25:41.937Z,25.3
2018-01-19T00:26:42.655Z,29.0
2018-01-19T00:27:43.387Z,33.5
2018-01-19T00:28:44.164Z,27.9
2018-01-19T00:29:44.873Z,30.5
2018-01-19T00:30:45.649Z,27.2
2018-01-19T00:31:46.378Z,29.6
2018-01-19T00:32:47.103Z,35.0
2018-01-19T00:33:47.822Z,36.0
2018-01-19T00:34:48.548Z,30.3
2018-01-19T00:35:49.279Z,32.9
2018-01-19T00:36:50.094Z,30.3
2018-01-19T00:37:50.823Z,33.2
2018-01-19T00:38:51.558Z,33.3
2018-01-19T00:39:52.306Z,33.0
2018-01-19T00:40:53.007Z,28.1
2018-01-19T00:41:53.733Z,28.8
2018-01-19T00:42:54.559Z,32.2
2018-01-19T00:43:55.358Z,29.2
2018-01-19T00:44:56.077Z,29.5
2018-01-19T00:45:56.885Z,36.0
2018-01-19T00:46:57.604Z,31.8
2018-01-19T00:47:58.458Z,33.8
2018-01-19T00:48:59.244Z,34.9
2018-01-19T00:50:00.052Z,36.1
2018-01-19T00:51:00.772Z,29.3
2018-01-19T00:52:01.494Z,33.1
2018-01-19T00:53:02.278Z,32.4
2018-01-19T00:54:03.006Z,33.4
2018-01-19T00:55:03.737Z,37.7
2018-01-19T00:56:04.518Z,36.8
2018-01-19T00:57:05.251Z,34.1
2018-01-19T00:58:06.022Z,29.7
2018-01-19T00:59:06.742Z,30.6
2018-01-19T01:00:07.483Z,30.2
2018-01-19T01:01:08.260Z,31.5
2018-01-19T01:02:08.979Z,35.1
2018-01-19T01:03:09.772Z,36.9
2018-01-19T01:04:10.481Z,31.2
2018-01-19T01:05:11.273Z,37.2
2018-01-19T01:06:12.007Z,34.4
2018-01-19T01:07:12.765Z,34.9
2018-01-19T01:08:13.490Z,36.1
2018-01-19T01:09:14.214Z,34.7
2018-01-19T01:10:14.951Z,33.0
2018-01-19T01:11:15.729Z,35.1
2018-01-19T01:12:16.454Z,34.4
2018-01-19T01:13:17.181Z,36.6
2018-01-19T01:14:17.945Z,37.2
2018-01-19T01:15:18.668Z,40.0
2018-01-19T01:16:19.402Z,45.0
2018-01-19T01:17:20.193Z,31.3
2018-01-19T01:18:20.909Z,40.8
2018-01-19T01:19:21.675Z,37.5
2018-01-19T01:20:22.394Z,36.6
2018-01-19T01:21:23.130Z,46.1
2018-01-19T01:22:23.928Z,43.1
2018-01-19T01:23:24.658Z,41.5
2018-01-19T01:24:25.390Z,46.4
2018-01-19T01:25:26.226Z,47.0
2018-01-19T01:26:26.954Z,48.9
2018-01-19T01:27:27.683Z,49.9
2018-01-19T01:28:28.406Z,46.6
2018-01-19T01:29:29.129Z,60.0
2018-01-19T01:30:29.894Z,49.7
2018-01-19T01:31:30.616Z,55.5
2018-01-19T01:32:31.343Z,58.8
2018-01-19T01:33:32.067Z,53.7
2018-01-19T01:34:32.867Z,50.4
2018-01-19T01:35:33.611Z,55.3
2018-01-19T01:36:34.338Z,57.7
2018-01-19T01:37:35.066Z,58.7
2018-01-19T01:38:35.864Z,62.1
2018-01-19T01:39:36.600Z,58.4
2018-01-19T01:40:37.464Z,62.0
2018-01-19T01:41:38.252Z,63.6
2018-01-19T01:42:38.986Z,75.8
2018-01-19T01:43:39.774Z,71.5
2018-01-19T01:44:40.496Z,74.6
2018-01-19T01:45:41.262Z,63.6
2018-01-19T01:46:41.989Z,76.7
2018-01-19T01:47:42.718Z,80.8
2018-01-19T01:48:43.435Z,77.7
2018-01-19T01:49:44.172Z,69.7
2018-01-19T01:50:44.981Z,66.3
2018-01-19T01:51:45.772Z,76.0
2018-01-19T01:52:46.499Z,74.0
2018-01-19T01:53:47.229Z,85.2
2018-01-19T01:54:47.939Z,78.5
2018-01-19T01:55:48.661Z,74.6
2018-01-19T01:56:49.387Z,73.9
2018-01-19T01:57:50.115Z,73.2
2018-01-19T01:58:50.835Z,91.4
2018-01-19T01:59:51.558Z,84.1
2018-01-19T02:00:52.324Z,82.7
2018-01-19T02:01:53.044Z,79.8
2018-01-19T02:02:53.851Z,87.7
2018-01-19T02:03:54.570Z,83.2
2018-01-19T02:04:55.287Z,98.6
2018-01-19T02:05:56.116Z,102.9
2018-01-19T02:06:56.888Z,90.8
2018-01-19T02:07:57.613Z,100.8
2018-01-19T02:08:58.379Z,95.1
2018-01-19T02:09:59.109Z,104.8
2018-01-19T02:10:59.826Z,112.6
2018-01-19T02:12:00.595Z,111.4
2018-01-19T02:13:01.309Z,107.9
2018-01-19T02:14:02.039Z,103.9
2018-01-19T02:15:02.783Z,97.4
2018-01-19T02:16:03.518Z,110.6
2018-01-19T02:17:04.328Z,100.1
2018-01-19T02:18:05.051Z,125.1
2018-01-19T02:19:05.766Z,112.2
2018-01-19T02:20:06.487Z,101.0
2018-01-19T02:21:07.281Z,109.2
2018-01-19T02:22:08.024Z,96.1
2018-01-19T02:23:08.735Z,113.4
2018-01-19T02:24:09.458Z,122.2
2018-01-19T02:25:10.173Z,147.4
2018-01-19T02:26:10.950Z,138.7
2018-01-19T02:27:11.733Z,114.3
2018-01-19T02:28:12.469Z,135.1
2018-01-19T02:29:13.206Z,140.5
2018-01-19T02:30:13.929Z,156.1
2018-01-19T02:31:14.644Z,144.1
2018-01-19T02:32:15.414Z,129.7
2018-01-19T02:33:16.140Z,133.8
2018-01-19T02:34:16.978Z,136.3
2018-01-19T02:35:17.694Z,154.7
2018-01-19T02:36:18.446Z,131.5
2018-01-19T02:37:19.171Z,142.9
2018-01-19T02:38:19.948Z,150.0
2018-01-19T02:39:20.666Z,141.3
2018-01-19T02:40:21.457Z,146.2
2018-01-19T02:41:22.202Z,151.1
2018-01-19T02:42:23.008Z,148.2
2018-01-19T02:43:23.743Z,125.1
2018-01-19T02:44:24.541Z,160.2
2018-01-19T02:45:25.269Z,157.3
2018-01-19T02:46:25.986Z,138.4
2018-01-19T02:47:26.700Z,155.0
2018-01-19T02:48:27.498Z,155.0
2018-01-19T02:49:28.236Z,168.4
2018-01-19T02:50:28.951Z,140.8
2018-01-19T02:51:29.672Z,150.1
2018-01-19T02:52:30.407Z,145.1
2018-01-19T02:53:31.244Z,146.7
2018-01-19T02:54:31.959Z,180.1
2018-01-19T02:55:32.726Z,162.3
2018-01-19T02:56:33.449Z,156.0
2018-01-19T02:57:34.180Z,175.9
2018-01-19T02:58:34.970Z,141.7
2018-01-19T02:59:35.732Z,165.6
2018-01-19T03:00:36.517Z,191.0
2018-01-19T03:01:37.284Z,181.5
2018-01-19T03:02:38.016Z,174.9
2018-01-19T03:03:38.749Z,209.7
2018-01-19T03:04:39.478Z,166.1
2018-01-19T03:05:40.237Z,189.0
2018-01-19T03:06:40.962Z,188.4
2018-01-19T03:07:41.675Z,186.8
2018-01-19T03:08:42.389Z,209.8
2018-01-19T03:09:43.545Z,181.5
2018-01-19T03:10:44.254Z,187.7
2018-01-19T03:11:44.978Z,163.2
2018-01-19T03:12:45.712Z,192.6
2018-01-19T03:13:46.497Z,229.2
2018-01-19T03:14:47.286Z,216.0
2018-01-19T03:15:48.108Z,205.0
2018-01-19T03:16:48.839Z,195.1
2018-01-19T03:17:49.559Z,224.0
2018-01-19T03:18:50.289Z,192.9
2018-01-19T03:19:51.087Z,185.4
2018-01-19T03:20:51.869Z,219.3
2018-01-19T03:21:52.608Z,204.9
2018-01-19T03:22:53.347Z,213.3
2018-01-19T03:23:54.145Z,215.7
2018-01-19T03:24:54.890Z,201.0
2018-01-19T03:25:55.687Z,205.0
2018-01-19T03:26:56.419Z,229.2
2018-01-19T03:27:57.150Z,201.7
2018-01-19T03:28:57.935Z,237.4
2018-01-19T03:29:58.659Z,205.6
2018-01-19T03:30:59.382Z,210.7
2018-01-19T03:32:00.151Z,245.8
2018-01-19T03:33:00.868Z,212.9
2018-01-19T03:34:01.599Z,213.6
2018-01-19T03:35:02.369Z,200.7
2018-01-19T03:36:03.094Z,221.4
2018-01-19T03:37:03.811Z,215.4
2018-01-19T03:38:04.621Z,206.6
2018-01-19T03:39:05.359Z,244.6
2018-01-19T03:40:06.100Z,228.1
2018-01-19T03:41:06.889Z,242.2
2018-01-19T03:42:07.621Z,224.8
2018-01-19T03:43:08.394Z,209.8
2018-01-19T03:44:09.129Z,204.7
2018-01-19T03:45:09.853Z,235.3
2018-01-19T03:46:10.656Z,260.3
2018-01-19T03:47:11.372Z,255.9
2018-01-19T03:48:12.215Z,223.6
2018-01-19T03:49:12.940Z,239.4
2018-01-19T03:50:13.673Z,230.5
2018-01-19T03:51:14.448Z,254.5
2018-01-19T03:52:15.246Z,226.8
2018-01-19T03:53:16.084Z,204.0
2018-01-19T03:54:16.815Z,223.6
2018-01-19T03:55:23.876Z,221.1
2018-01-19T03:56:24.600Z,225.0
2018-01-19T03:57:25.386Z,216.6
2018-01-19T03:58:26.190Z,203.7
2018-01-19T03:59:26.920Z,212.7
2018-01-19T04:00:27.709Z,207.5
2018-01-19T04:01:28.425Z,223.6
2018-01-19T04:02:29.215Z,219.9
2018-01-19T04:03:30.014Z,221.8
2018-01-19T04:04:30.871Z,212.8
2018-01-19T04:06:45.855Z,242.2
2018-01-19T04:07:46.650Z,245.1
2018-01-19T04:08:47.385Z,257.9
2018-01-19T04:09:48.109Z,277.3
2018-01-19T04:10:48.845Z,233.9
2018-01-19T04:11:49.600Z,226.2
2018-01-19T04:12:50.326Z,272.0
2018-01-19T04:13:51.114Z,275.6
2018-01-19T04:16:06.212Z,287.5
2018-01-19T04:17:06.923Z,237.6
2018-01-19T04:18:07.734Z,241.8
2018-01-19T04:19:08.460Z,224.2
2018-01-19T04:20:09.194Z,239.1
2018-01-19T04:21:09.911Z,224.6
2018-01-19T04:22:10.689Z,259.3
2018-01-19T04:23:11.420Z,253.1
2018-01-19T04:24:12.142Z,238.0
2018-01-19T04:25:12.913Z,247.2
2018-01-19T04:26:13.645Z,227.9
2018-01-19T04:27:14.361Z,241.2
2018-01-19T04:28:15.096Z,227.6
2018-01-19T04:29:15.924Z,245.6
2018-01-19T04:30:16.714Z,250.3
2018-01-19T04:31:17.457Z,247.5
2018-01-19T04:32:18.182Z,252.0
2018-01-19T04:33:18.994Z,258.4
2018-01-19T04:34:19.718Z,230.2
2018-01-19T04:35:20.453Z,258.8
2018-01-19T04:36:21.304Z,272.7
2018-01-19T04:37:22.038Z,258.3
2018-01-19T04:38:22.845Z,235.2
2018-01-19T04:39:23.569Z,237.3
2018-01-19T04:40:24.302Z,240.7
2018-01-19T04:41:25.018Z,238.8
2018-01-19T04:42:25.834Z,233.5
2018-01-19T04:43:26.553Z,243.4
2018-01-19T04:44:27.302Z,247.6
2018-01-19T04:45:28.073Z,247.6
2018-01-19T04:46:28.788Z,252.4
2018-01-19T04:47:29.576Z,269.0
2018-01-19T04:48:30.311Z,268.6
2018-01-19T04:49:31.044Z,254.7
2018-01-19T04:50:31.765Z,222.4
2018-01-19T04:51:32.540Z,263.6
2018-01-19T04:52:33.307Z,261.1
2018-01-19T04:53:34.026Z,238.4
2018-01-19T04:54:34.736Z,263.6
2018-01-19T04:55:35.469Z,265.4
2018-01-19T04:56:36.259Z,257.3
2018-01-19T04:57:36.995Z,258.3
2018-01-19T04:58:37.715Z,248.2
2018-01-19T04:59:38.531Z,282.7
2018-01-19T05:00:39.264Z,268.4
2018-01-19T05:01:39.996Z,264.6
2018-01-19T05:02:40.797Z,271.1
2018-01-19T05:03:41.525Z,241.5
2018-01-19T05:04:42.295Z,244.0
2018-01-19T05:05:43.100Z,258.5
2018-01-19T05:06:43.840Z,299.3
2018-01-19T05:07:44.582Z,223.1
2018-01-19T05:08:45.414Z,262.4
2018-01-19T05:09:46.229Z,250.9
2018-01-19T05:10:47.004Z,247.9
2018-01-19T05:11:47.724Z,249.4
2018-01-19T05:12:48.502Z,235.9
2018-01-19T05:13:49.294Z,248.6
2018-01-19T05:14:50.011Z,236.5
2018-01-19T05:15:50.736Z,236.4
2018-01-19T05:16:51.470Z,232.5
2018-01-19T05:17:52.260Z,247.3
2018-01-19T05:18:52.979Z,230.6
2018-01-19T05:19:53.754Z,241.8
2018-01-19T05:20:54.480Z,235.4
2018-01-19T05:21:55.194Z,228.5
2018-01-19T05:22:55.922Z,222.8
2018-01-19T05:23:56.744Z,248.7
2018-01-19T05:24:57.546Z,237.2
2018-01-19T05:25:58.270Z,242.5
2018-01-19T05:26:58.995Z,241.7
2018-01-19T05:27:59.793Z,249.8
2018-01-19T05:29:00.519Z,235.1
2018-01-19T05:30:01.291Z,240.2
2018-01-19T05:31:02.089Z,245.5
2018-01-19T05:32:02.810Z,243.1
2018-01-19T05:33:03.533Z,260.9
2018-01-19T05:34:04.252Z,263.8
2018-01-19T05:35:04.971Z,262.4
2018-01-19T05:36:05.701Z,273.5
2018-01-19T05:37:06.490Z,283.9
2018-01-19T05:38:07.218Z,265.2
2018-01-19T05:39:07.944Z,280.4
2018-01-19T05:40:08.673Z,278.8
2018-01-19T05:41:09.408Z,272.0
2018-01-19T05:42:10.135Z,249.0
2018-01-19T05:43:10.905Z,275.4
2018-01-19T05:44:11.698Z,266.8
2018-01-19T05:45:12.409Z,281.5
2018-01-19T05:46:13.143Z,269.2
2018-01-19T05:47:13.875Z,268.4
2018-01-19T05:48:14.732Z,261.0
2018-01-19T05:49:15.449Z,262.1
2018-01-19T05:50:16.173Z,240.7
2018-01-19T05:51:16.896Z,242.6
2018-01-19T05:52:17.710Z,260.8
2018-01-19T05:53:18.495Z,255.4
2018-01-19T05:54:19.307Z,234.6
2018-01-19T05:55:20.089Z,249.3
2018-01-19T05:56:20.822Z,243.1
2018-01-19T05:57:21.620Z,254.2
2018-01-19T05:58:22.390Z,266.7
2018-01-19T05:59:23.118Z,254.1
2018-01-19T06:00:23.932Z,241.7
2018-01-19T06:01:24.731Z,259.1
2018-01-19T06:02:25.452Z,247.2
2018-01-19T06:03:26.361Z,239.9
2018-01-19T06:04:27.040Z,247.9
2018-01-19T06:05:27.791Z,249.6
2018-01-19T06:06:28.569Z,248.2
2018-01-19T06:07:29.299Z,244.3
2018-01-19T06:08:30.066Z,258.7
2018-01-19T06:09:30.805Z,237.1
2018-01-19T06:10:31.587Z,235.1
2018-01-19T06:11:32.311Z,224.6
2018-01-19T06:12:33.031Z,255.7
2018-01-19T06:13:33.810Z,245.6
2018-01-19T06:14:34.609Z,258.2
2018-01-19T06:15:35.344Z,237.9
2018-01-19T06:16:36.070Z,246.2
2018-01-19T06:17:36.806Z,249.9
2018-01-19T06:18:37.580Z,223.7
2018-01-19T06:19:38.299Z,239.4
2018-01-19T06:20:39.138Z,255.9
2018-01-19T06:21:39.866Z,237.7
2018-01-19T06:22:40.748Z,239.0
2018-01-19T06:23:41.474Z,241.6
2018-01-19T06:24:42.245Z,231.2
2018-01-19T06:25:42.993Z,240.9
2018-01-19T06:26:43.820Z,248.5
2018-01-19T06:27:44.653Z,250.1
2018-01-19T06:28:45.378Z,239.0
2018-01-19T06:29:46.177Z,255.7
2018-01-19T06:30:46.906Z,249.6
2018-01-19T06:31:47.628Z,249.2
2018-01-19T06:32:48.409Z,251.4
2018-01-19T06:33:49.134Z,240.7
2018-01-19T06:34:49.929Z,227.3
2018-01-19T06:35:50.706Z,227.9
2018-01-19T06:36:51.419Z,248.5
2018-01-19T06:37:52.200Z,241.9
2018-01-19T06:38:52.921Z,236.7
2018-01-19T06:39:53.649Z,218.0
2018-01-19T06:40:54.422Z,228.6
2018-01-19T06:41:55.210Z,227.0
2018-01-19T06:42:55.984Z,220.7
2018-01-19T06:43:56.687Z,208.0
2018-01-19T06:44:57.421Z,230.4
2018-01-19T06:45:58.142Z,203.3
2018-01-19T06:46:58.915Z,204.5
2018-01-19T06:47:59.731Z,220.0
2018-01-19T06:49:00.456Z,208.5
2018-01-19T06:50:01.334Z,209.8
2018-01-19T06:51:02.067Z,210.2
2018-01-19T06:52:03.226Z,191.0
2018-01-19T06:53:04.224Z,186.2
2018-01-19T06:54:04.892Z,177.2
2018-01-19T06:55:05.739Z,184.0
2018-01-19T06:56:06.461Z,181.1
2018-01-19T06:57:07.294Z,178.7
2018-01-19T06:58:08.097Z,174.0
2018-01-19T06:59:08.811Z,177.7
2018-01-19T07:00:09.584Z,188.2
2018-01-19T07:01:10.314Z,190.4
2018-01-19T07:02:11.107Z,177.6
2018-01-19T07:03:11.877Z,190.4
2018-01-19T07:04:12.670Z,204.4
2018-01-19T07:05:13.378Z,178.1
2018-01-19T07:06:14.148Z,172.9
2018-01-19T07:07:15.020Z,161.2
2018-01-19T07:08:15.750Z,172.3
2018-01-19T07:09:16.466Z,191.1
2018-01-19T07:10:17.198Z,166.0
2018-01-19T07:11:17.921Z,163.3
2018-01-19T07:12:18.695Z,150.5
2018-01-19T07:13:19.432Z,165.1
2018-01-19T07:14:20.206Z,172.0
2018-01-19T07:15:20.920Z,169.7
2018-01-19T07:16:21.660Z,166.2
2018-01-19T07:17:22.386Z,167.0
2018-01-19T07:18:23.171Z,164.4
2018-01-19T07:19:23.930Z,162.3
2018-01-19T07:20:24.662Z,157.2
2018-01-19T07:21:25.449Z,158.8
2018-01-19T07:22:26.255Z,156.2
2018-01-19T07:23:27.005Z,164.0
2018-01-19T07:24:27.788Z,159.3
2018-01-19T07:25:28.565Z,164.8
2018-01-19T07:26:29.304Z,164.0
2018-01-19T07:27:30.040Z,172.0
2018-01-19T07:28:30.760Z,165.7
2018-01-19T07:29:31.490Z,169.3
2018-01-19T07:30:32.281Z,156.5
2018-01-19T07:31:33.007Z,160.1
2018-01-19T07:32:33.732Z,163.6
2018-01-19T07:33:34.527Z,159.6
2018-01-19T07:34:35.260Z,167.8
2018-01-19T07:35:36.058Z,161.0
2018-01-19T07:36:36.825Z,155.4
2018-01-19T07:37:37.614Z,162.0
2018-01-19T07:38:38.277Z,162.5
2018-01-19T07:39:39.012Z,161.5
2018-01-19T07:40:39.790Z,162.9
2018-01-19T07:41:40.573Z,160.4
2018-01-19T07:42:41.390Z,165.3
2018-01-19T07:43:42.167Z,158.7
2018-01-19T07:44:42.886Z,155.4
2018-01-19T07:45:43.680Z,148.9
2018-01-19T07:46:44.477Z,147.2
2018-01-19T07:47:45.386Z,144.9
2018-01-19T07:48:46.480Z,137.7
2018-01-19T07:49:48.124Z,148.2
2018-01-19T07:50:49.071Z,146.0
2018-01-19T07:51:49.857Z,154.0
2018-01-19T07:52:51.928Z,149.2
2018-01-19T07:53:53.704Z,152.9
2018-01-19T07:54:54.651Z,151.0
2018-01-19T07:55:55.346Z,161.0
2018-01-19T07:56:56.077Z,153.1
2018-01-19T07:57:56.771Z,152.5
2018-01-19T07:58:57.494Z,140.0
2018-01-19T07:59:58.295Z,146.9
2018-01-19T08:00:59.045Z,127.4
2018-01-19T08:01:59.811Z,126.7
2018-01-19T08:03:00.537Z,123.9
2018-01-19T08:04:01.260Z,120.1
2018-01-19T08:05:02.141Z,106.2
2018-01-19T08:06:02.872Z,115.0
2018-01-19T08:07:03.601Z,107.2
2018-01-19T08:08:04.334Z,107.3
2018-01-19T08:09:05.067Z,112.1
2018-01-19T08:10:05.801Z,108.1
2018-01-19T08:11:06.539Z,106.6
2018-01-19T08:12:07.343Z,107.5
2018-01-19T08:13:08.047Z,107.8
2018-01-19T08:14:08.761Z,104.1
2018-01-19T08:15:09.498Z,107.7
2018-01-19T08:16:10.211Z,97.0
2018-01-19T08:17:10.943Z,101.2
2018-01-19T08:18:11.666Z,96.3
2018-01-19T08:19:12.395Z,94.4
2018-01-19T08:20:13.136Z,92.2
2018-01-19T08:21:13.879Z,99.5
2018-01-19T08:22:14.601Z,94.9
2018-01-19T08:23:15.371Z,89.0
2018-01-19T08:24:16.102Z,94.0
2018-01-19T08:25:16.867Z,93.6
2018-01-19T08:26:17.650Z,88.5
2018-01-19T08:27:18.447Z,88.3
2018-01-19T08:28:19.288Z,84.5
2018-01-19T08:29:20.077Z,81.8
2018-01-19T08:30:20.829Z,87.3
2018-01-19T08:31:21.607Z,85.1
2018-01-19T08:32:22.350Z,78.3
2018-01-19T08:33:23.084Z,82.1
2018-01-19T08:34:23.907Z,79.3
2018-01-19T08:35:24.668Z,84.5
2018-01-19T08:36:25.764Z,84.9
2018-01-19T08:37:26.661Z,76.5
2018-01-19T08:38:27.499Z,80.0
2018-01-19T08:39:28.310Z,85.2
2018-01-19T08:40:29.046Z,81.6
2018-01-19T08:41:29.773Z,85.1
2018-01-19T08:42:30.509Z,81.3
2018-01-19T08:43:31.234Z,78.7
2018-01-19T08:44:32.097Z,76.0
2018-01-19T08:45:32.907Z,79.0
2018-01-19T08:46:33.645Z,69.4
2018-01-19T08:47:34.435Z,67.4
2018-01-19T08:48:35.220Z,65.3
2018-01-19T08:49:35.940Z,62.2
2018-01-19T08:50:36.673Z,68.5
2018-01-19T08:51:37.460Z,66.8
2018-01-19T08:52:38.230Z,63.5
2018-01-19T08:53:38.956Z,68.5
2018-01-19T08:54:39.680Z,70.8
2018-01-19T08:55:40.426Z,63.1
2018-01-19T08:56:41.159Z,60.2
2018-01-19T08:57:41.877Z,62.1
2018-01-19T08:58:42.610Z,66.2
2018-01-19T08:59:43.409Z,60.3
2018-01-19T09:00:44.181Z,54.7
2018-01-19T09:01:44.900Z,59.7
2018-01-19T09:02:45.615Z,56.6
2018-01-19T09:03:46.335Z,51.6
2018-01-19T09:04:47.080Z,51.0
2018-01-19T09:05:47.846Z,55.2
2018-01-19T09:06:48.595Z,54.8
2018-01-19T09:07:49.317Z,57.4
2018-01-19T09:08:50.050Z,59.4
2018-01-19T09:09:50.786Z,61.6
2018-01-19T09:10:51.570Z,63.1
2018-01-19T09:11:52.306Z,65.4
2018-01-19T09:12:53.103Z,61.0
2018-01-19T09:13:53.837Z,60.3
2018-01-19T09:14:54.546Z,67.4
2018-01-19T09:15:55.298Z,63.1
2018-01-19T09:16:56.093Z,70.6
2018-01-19T09:17:56.831Z,73.9
2018-01-19T09:18:57.570Z,65.3
2018-01-19T09:19:58.301Z,83.2
2018-01-19T09:20:59.102Z,76.1
2018-01-19T09:21:59.825Z,65.8
2018-01-19T09:23:00.556Z,67.4
2018-01-19T09:24:01.271Z,72.3
2018-01-19T09:25:02.001Z,73.0
2018-01-19T09:26:02.786Z,82.8
2018-01-19T09:27:03.594Z,75.6
2018-01-19T09:28:04.317Z,77.3
2018-01-19T09:29:05.069Z,78.7
2018-01-19T09:30:05.804Z,83.3
2018-01-19T09:31:06.607Z,85.2
2018-01-19T09:32:07.391Z,71.7
2018-01-19T09:33:08.116Z,77.2
2018-01-19T09:34:08.862Z,81.6
2018-01-19T09:35:09.601Z,77.8
2018-01-19T09:36:10.320Z,74.3
2018-01-19T09:37:11.060Z,82.1
2018-01-19T09:38:11.777Z,79.1
2018-01-19T09:39:12.516Z,76.7
2018-01-19T09:40:13.299Z,75.7
2018-01-19T09:41:14.040Z,75.6
2018-01-19T09:42:14.810Z,76.5
2018-01-19T09:43:15.549Z,83.0
2018-01-19T09:44:16.272Z,83.8
2018-01-19T09:45:17.059Z,77.9
2018-01-19T09:46:17.880Z,77.6
2018-01-19T09:47:18.621Z,82.5
2018-01-19T09:48:19.400Z,75.5
2018-01-19T09:49:20.117Z,87.1
2018-01-19T09:50:20.906Z,74.7
2018-01-19T09:51:21.670Z,75.5
2018-01-19T09:52:22.404Z,86.5
2018-01-19T09:53:23.123Z,83.7
2018-01-19T09:54:23.879Z,77.5
2018-01-19T09:55:24.679Z,76.7
2018-01-19T09:56:25.457Z,67.8
2018-01-19T09:57:26.272Z,75.6
2018-01-19T09:58:26.996Z,79.2
2018-01-19T09:59:27.723Z,71.1
2018-01-19T10:00:28.450Z,68.5
2018-01-19T10:01:29.275Z,68.3
2018-01-19T10:02:30.118Z,69.9
2018-01-19T10:03:30.851Z,68.6
2018-01-19T10:04:31.586Z,62.9
2018-01-19T10:05:32.429Z,63.5
2018-01-19T10:06:33.223Z,71.0
2018-01-19T10:07:33.952Z,63.8
2018-01-19T10:08:34.776Z,64.7
2018-01-19T10:09:35.504Z,60.6
2018-01-19T10:10:36.328Z,59.3
2018-01-19T10:11:37.103Z,60.1
2018-01-19T10:12:37.873Z,58.8
2018-01-19T10:13:38.724Z,56.4
2018-01-19T10:14:39.526Z,54.3
2018-01-19T10:15:40.310Z,59.4
2018-01-19T10:16:41.030Z,53.7
2018-01-19T10:17:41.830Z,54.5
2018-01-19T10:18:42.547Z,47.6
2018-01-19T10:19:43.283Z,50.4
2018-01-19T10:20:44.036Z,52.1
2018-01-19T10:21:44.766Z,47.5
2018-01-19T10:22:45.493Z,46.2
2018-01-19T10:23:46.264Z,45.8
2018-01-19T10:24:47.066Z,47.5
2018-01-19T10:25:47.796Z,51.1
2018-01-19T10:26:48.516Z,48.3
2018-01-19T10:27:49.285Z,48.2
2018-01-19T10:28:50.087Z,48.2
2018-01-19T10:29:50.813Z,42.9
2018-01-19T10:30:51.611Z,41.7
2018-01-19T10:31:52.349Z,41.9
2018-01-19T10:32:53.151Z,41.1
2018-01-19T10:33:53.865Z,35.3
2018-01-19T10:34:54.602Z,41.2
2018-01-19T10:35:55.397Z,33.7
2018-01-19T10:36:56.153Z,33.3
2018-01-19T10:37:56.880Z,31.2
2018-01-19T10:38:57.600Z,31.3
2018-01-19T10:39:58.327Z,33.3
2018-01-19T10:40:59.051Z,34.8
2018-01-19T10:41:59.771Z,26.3
2018-01-19T10:43:00.494Z,26.7
2018-01-19T10:44:01.302Z,23.2
2018-01-19T10:45:01.998Z,27.0
2018-01-19T10:46:02.730Z,25.2
2018-01-19T10:47:03.469Z,21.7
2018-01-19T10:48:04.194Z,24.5
2018-01-19T10:49:04.976Z,21.8
2018-01-19T10:50:05.711Z,22.7
2018-01-19T10:51:06.511Z,21.9
2018-01-19T10:52:07.230Z,20.5
2018-01-19T10:53:07.960Z,20.7
2018-01-19T10:54:08.696Z,18.1
2018-01-19T10:55:09.476Z,19.4
2018-01-19T10:56:10.193Z,18.9
2018-01-19T10:57:10.920Z,16.3
2018-01-19T10:58:11.671Z,20.4
2018-01-19T10:59:12.451Z,19.0
2018-01-19T11:00:13.181Z,21.6
2018-01-19T11:01:13.919Z,20.0
2018-01-19T11:02:14.703Z,19.9
2018-01-19T11:03:15.495Z,17.4
2018-01-19T11:04:16.226Z,21.4
2018-01-19T11:05:17.005Z,18.9
2018-01-19T11:06:17.736Z,19.7
2018-01-19T11:07:18.527Z,20.8
2018-01-19T11:08:19.197Z,18.1
2018-01-19T11:09:19.930Z,21.7
2018-01-19T11:10:20.668Z,22.3
2018-01-19T11:11:21.402Z,21.2
2018-01-19T11:12:22.118Z,19.7
2018-01-19T11:13:22.847Z,20.9
2018-01-19T11:14:23.585Z,25.5
2018-01-19T11:15:24.399Z,26.9
2018-01-19T11:16:25.198Z,25.0
2018-01-19T11:17:26.047Z,28.7
2018-01-19T11:18:26.894Z,26.9
2018-01-19T11:19:27.636Z,26.0
2018-01-19T11:20:28.360Z,24.8
2018-01-19T11:21:29.086Z,32.5
2018-01-19T11:22:29.828Z,27.3
2018-01-19T11:23:30.552Z,24.7
2018-01-19T11:24:31.337Z,29.1
2018-01-19T11:25:32.064Z,25.4
2018-01-19T11:26:32.786Z,25.8
2018-01-19T11:27:33.531Z,25.0
2018-01-19T11:28:34.254Z,25.1
2018-01-19T11:29:35.071Z,25.9
2018-01-19T11:30:35.844Z,28.0
2018-01-19T11:31:36.651Z,24.9
2018-01-19T11:32:37.446Z,26.1
2018-01-19T11:33:38.263Z,27.9
2018-01-19T11:34:39.020Z,27.2
2018-01-19T11:35:39.767Z,30.1
2018-01-19T11:36:40.606Z,27.0
2018-01-19T11:37:41.397Z,28.2
2018-01-19T11:38:42.130Z,28.9
2018-01-19T11:39:43.918Z,30.4
2018-01-19T11:40:44.889Z,33.9
2018-01-19T11:41:45.671Z,29.1
2018-01-19T11:42:46.396Z,31.2
2018-01-19T11:43:47.128Z,29.4
2018-01-19T11:44:47.917Z,31.7
2018-01-19T11:45:48.651Z,37.5
2018-01-19T11:46:49.445Z,37.6
2018-01-19T11:47:50.245Z,40.7
2018-01-19T11:48:51.050Z,32.2
2018-01-19T11:49:51.777Z,40.0
2018-01-19T11:50:52.526Z,37.5
2018-01-19T11:51:53.302Z,33.4
2018-01-19T11:52:54.035Z,34.3
2018-01-19T11:53:54.831Z,40.5
2018-01-19T11:54:55.563Z,36.7
2018-01-19T11:55:56.289Z,34.7
2018-01-19T11:56:57.090Z,34.2
2018-01-19T11:57:57.808Z,36.2
2018-01-19T11:58:58.631Z,36.5
2018-01-19T11:59:59.377Z,38.5
2018-01-19T12:01:00.215Z,39.7
2018-01-19T12:02:00.932Z,36.8
2018-01-19T12:03:01.728Z,35.5
2018-01-19T12:04:02.499Z,35.7
2018-01-19T12:05:03.311Z,40.0
2018-01-19T12:06:04.143Z,36.8
2018-01-19T12:07:04.871Z,32.8
2018-01-19T12:08:05.596Z,37.2
2018-01-19T12:09:06.360Z,33.1
2018-01-19T12:10:07.100Z,39.1
2018-01-19T12:11:07.871Z,31.8
2018-01-19T12:12:08.592Z,37.3
2018-01-19T12:13:09.364Z,35.2
2018-01-19T12:14:10.094Z,33.8
2018-01-19T12:15:10.886Z,29.5
2018-01-19T12:16:11.618Z,33.0
2018-01-19T12:17:12.927Z,32.0
2018-01-19T12:18:13.767Z,33.6
2018-01-19T12:19:14.612Z,30.4
2018-01-19T12:20:15.340Z,34.4
2018-01-19T12:21:16.071Z,35.3
2018-01-19T12:22:16.779Z,31.7
2018-01-19T12:23:17.847Z,31.7
2018-01-19T12:24:18.681Z,33.7
2018-01-19T12:25:19.419Z,28.8
2018-01-19T12:26:20.225Z,34.2
2018-01-19T12:27:21.024Z,38.9
2018-01-19T12:28:21.753Z,36.7
2018-01-19T12:29:23.550Z,33.6
2018-01-19T12:30:25.651Z,35.4
2018-01-19T12:31:27.777Z,36.0
2018-01-19T12:32:30.276Z,36.3
2018-01-19T12:33:32.166Z,32.1
2018-01-19T12:34:34.208Z,33.4
2018-01-19T12:35:35.201Z,29.7
2018-01-19T12:36:35.972Z,29.3
2018-01-19T12:37:36.700Z,29.4
2018-01-19T12:38:37.461Z,32.1
2018-01-19T12:39:38.188Z,33.4
2018-01-19T12:40:38.929Z,27.5
2018-01-19T12:41:39.750Z,25.6
2018-01-19T12:42:40.490Z,29.1
2018-01-19T12:43:41.241Z,28.4
2018-01-19T12:44:42.064Z,28.9
2018-01-19T12:45:42.741Z,29.0
2018-01-19T12:46:43.519Z,27.7
2018-01-19T12:47:44.237Z,31.4
2018-01-19T12:48:44.972Z,26.8
2018-01-19T12:49:45.754Z,22.6
2018-01-19T12:50:46.507Z,21.9
2018-01-19T12:51:47.321Z,25.5
2018-01-19T12:52:48.101Z,26.0
2018-01-19T12:53:48.793Z,24.9
2018-01-19T12:54:49.554Z,25.1
2018-01-19T12:55:50.377Z,22.6
2018-01-19T12:56:51.220Z,20.5
2018-01-19T12:57:51.919Z,22.9
2018-01-19T12:58:52.704Z,22.4
2018-01-19T12:59:53.436Z,18.6
2018-01-19T13:00:54.174Z,20.5
2018-01-19T13:01:55.019Z,20.0
2018-01-19T13:02:55.796Z,20.5
2018-01-19T13:03:56.501Z,21.9
2018-01-19T13:04:57.242Z,17.6
2018-01-19T13:05:58.063Z,21.4
2018-01-19T13:06:58.860Z,19.6
2018-01-19T13:07:59.661Z,21.9
2018-01-19T13:09:00.403Z,20.9
2018-01-19T13:10:01.132Z,15.5
2018-01-19T13:11:01.932Z,24.1
2018-01-19T13:12:02.668Z,20.3
2018-01-19T13:13:03.447Z,18.6
2018-01-19T13:14:04.167Z,21.2
2018-01-19T13:15:04.912Z,15.3
2018-01-19T13:16:05.617Z,18.9
2018-01-19T13:17:06.353Z,17.8
2018-01-19T13:18:07.157Z,21.4
2018-01-19T13:19:07.861Z,17.7